RYR2UT EKCH-EIDW
Flight info
| Callsign | RYR2UT |
|---|---|
| Flight time | 1h 58m |
| Altitude | 36000 |
| Route | LANGO M611 ALASA DCT GIKOG DCT MIMVA DCT OTBED L60 PENIL UL28 LELDO M145 BAGSO BAGSO4L |
| Aircraft | B738/M-SDE2E3FGHIRWXY/LB1 |
Departure
| Time | 2026-05-07 12:16 |
|---|---|
| Airport | Copenhagen Kastrup Airport (EKCH) |
Arrival
| Time | 2026-05-07 14:14 |
|---|---|
| Airport | Dublin Airport (EIDW) |
| Time | Latitude | Longitude | Altitude | Speed | Heading |
|---|---|---|---|---|---|
| 2026-05-07 11:40 | 55.62512 | 12.65469 | 23 ft | 0 kts | 23° |
| 2026-05-07 12:07 | 55.62498 | 12.65457 | 26 ft | 4 kts | 23° |
| 2026-05-07 12:07 | 55.62477 | 12.65442 | 23 ft | 4 kts | 22° |
| 2026-05-07 12:07 | 55.62454 | 12.65434 | 23 ft | 4 kts | 336° |
| 2026-05-07 12:07 | 55.62443 | 12.65461 | 25 ft | 3 kts | 269° |
| 2026-05-07 12:08 | 55.62443 | 12.65500 | 24 ft | 1 kts | 269° |
| 2026-05-07 12:10 | 55.62443 | 12.65466 | 24 ft | 5 kts | 269° |
| 2026-05-07 12:11 | 55.62441 | 12.65380 | 24 ft | 9 kts | 269° |
| 2026-05-07 12:11 | 55.62440 | 12.65257 | 23 ft | 11 kts | 266° |
| 2026-05-07 12:11 | 55.62372 | 12.65202 | 23 ft | 13 kts | 179° |
| 2026-05-07 12:11 | 55.62270 | 12.65201 | 23 ft | 16 kts | 182° |
| 2026-05-07 12:12 | 55.62160 | 12.65122 | 23 ft | 19 kts | 213° |
| 2026-05-07 12:12 | 55.62044 | 12.64987 | 26 ft | 21 kts | 213° |
| 2026-05-07 12:12 | 55.61912 | 12.64836 | 25 ft | 24 kts | 213° |
| 2026-05-07 12:12 | 55.61766 | 12.64668 | 25 ft | 26 kts | 213° |
| 2026-05-07 12:13 | 55.61607 | 12.64486 | 25 ft | 28 kts | 213° |
| 2026-05-07 12:13 | 55.61438 | 12.64291 | 24 ft | 30 kts | 213° |
| 2026-05-07 12:13 | 55.61269 | 12.64098 | 23 ft | 28 kts | 213° |
| 2026-05-07 12:13 | 55.61111 | 12.63915 | 25 ft | 26 kts | 213° |
| 2026-05-07 12:14 | 55.60962 | 12.63746 | 23 ft | 25 kts | 213° |
| 2026-05-07 12:14 | 55.60844 | 12.63608 | 25 ft | 13 kts | 213° |
| 2026-05-07 12:14 | 55.60771 | 12.63633 | 25 ft | 12 kts | 133° |
| 2026-05-07 12:14 | 55.60733 | 12.63709 | 26 ft | 7 kts | 131° |
| 2026-05-07 12:15 | 55.60702 | 12.63773 | 24 ft | 7 kts | 130° |
| 2026-05-07 12:15 | 55.60675 | 12.63837 | 25 ft | 5 kts | 110° |
| 2026-05-07 12:15 | 55.60692 | 12.63890 | 28 ft | 0 kts | 43° |
| 2026-05-07 12:15 | 55.60741 | 12.63968 | 25 ft | 38 kts | 41° |
| 2026-05-07 12:16 | 55.61135 | 12.64578 | 25 ft | 111 kts | 41° |
| 2026-05-07 12:16 | 55.61862 | 12.65697 | 143 ft | 157 kts | 40° |
| 2026-05-07 12:16 | 55.62685 | 12.66984 | 987 ft | 155 kts | 40° |
| 2026-05-07 12:16 | 55.63544 | 12.68307 | 1667 ft | 174 kts | 39° |
| 2026-05-07 12:17 | 55.64541 | 12.69844 | 1983 ft | 204 kts | 39° |
| 2026-05-07 12:17 | 55.65667 | 12.71561 | 2300 ft | 224 kts | 39° |
| 2026-05-07 12:17 | 55.66923 | 12.73440 | 2687 ft | 246 kts | 39° |
| 2026-05-07 12:17 | 55.68235 | 12.75398 | 3452 ft | 252 kts | 39° |
| 2026-05-07 12:18 | 55.69571 | 12.77418 | 4389 ft | 253 kts | 43° |
| 2026-05-07 12:18 | 55.70519 | 12.80068 | 5196 ft | 262 kts | 71° |
| 2026-05-07 12:18 | 55.70617 | 12.83302 | 6063 ft | 268 kts | 101° |
| 2026-05-07 12:18 | 55.69805 | 12.86280 | 6901 ft | 274 kts | 131° |
| 2026-05-07 12:19 | 55.68228 | 12.88177 | 7699 ft | 280 kts | 157° |
| 2026-05-07 12:19 | 55.66378 | 12.89369 | 8463 ft | 285 kts | 160° |
| 2026-05-07 12:19 | 55.64493 | 12.90531 | 9301 ft | 288 kts | 160° |
| 2026-05-07 12:19 | 55.62579 | 12.91674 | 10083 ft | 293 kts | 166° |
| 2026-05-07 12:20 | 55.60526 | 12.91770 | 10589 ft | 307 kts | 192° |
| 2026-05-07 12:20 | 55.58556 | 12.90074 | 10812 ft | 328 kts | 221° |
| 2026-05-07 12:20 | 55.56932 | 12.87169 | 11358 ft | 337 kts | 227° |
| 2026-05-07 12:20 | 55.55322 | 12.84123 | 12116 ft | 340 kts | 227° |
| 2026-05-07 12:21 | 55.53695 | 12.81096 | 12970 ft | 341 kts | 227° |
| 2026-05-07 12:21 | 55.52218 | 12.77889 | 13788 ft | 342 kts | 241° |
| 2026-05-07 12:21 | 55.51408 | 12.73955 | 14552 ft | 344 kts | 262° |
| 2026-05-07 12:21 | 55.51187 | 12.69748 | 15302 ft | 347 kts | 266° |
| 2026-05-07 12:22 | 55.51048 | 12.65466 | 16046 ft | 351 kts | 267° |
| 2026-05-07 12:22 | 55.50919 | 12.61151 | 16804 ft | 354 kts | 267° |
| 2026-05-07 12:22 | 55.50780 | 12.56808 | 17583 ft | 356 kts | 266° |
| 2026-05-07 12:22 | 55.50629 | 12.52427 | 18339 ft | 359 kts | 266° |
| 2026-05-07 12:23 | 55.50467 | 12.48012 | 18982 ft | 363 kts | 266° |
| 2026-05-07 12:23 | 55.50298 | 12.43549 | 19622 ft | 366 kts | 266° |
| 2026-05-07 12:23 | 55.50181 | 12.40518 | 20051 ft | 368 kts | 266° |
| 2026-05-07 12:23 | 55.50006 | 12.36045 | 20670 ft | 372 kts | 266° |
| 2026-05-07 12:24 | 55.49825 | 12.31487 | 21287 ft | 375 kts | 266° |
| 2026-05-07 12:24 | 55.49608 | 12.26882 | 21880 ft | 379 kts | 261° |
| 2026-05-07 12:24 | 55.48798 | 12.22453 | 22438 ft | 383 kts | 242° |
| 2026-05-07 12:24 | 55.47315 | 12.18532 | 23060 ft | 386 kts | 234° |
| 2026-05-07 12:25 | 55.45679 | 12.14731 | 23633 ft | 390 kts | 233° |
| 2026-05-07 12:25 | 55.44009 | 12.10936 | 24080 ft | 394 kts | 233° |
| 2026-05-07 12:25 | 55.42322 | 12.07100 | 24524 ft | 398 kts | 233° |
| 2026-05-07 12:25 | 55.40628 | 12.03219 | 24970 ft | 401 kts | 233° |
| 2026-05-07 12:26 | 55.38924 | 11.99288 | 25415 ft | 405 kts | 233° |
| 2026-05-07 12:26 | 55.37213 | 11.95322 | 25841 ft | 409 kts | 233° |
| 2026-05-07 12:26 | 55.35491 | 11.91325 | 26272 ft | 412 kts | 233° |
| 2026-05-07 12:26 | 55.33752 | 11.87292 | 26693 ft | 415 kts | 233° |
| 2026-05-07 12:27 | 55.32001 | 11.83236 | 27090 ft | 419 kts | 233° |
| 2026-05-07 12:27 | 55.30257 | 11.79202 | 27494 ft | 422 kts | 233° |
| 2026-05-07 12:27 | 55.28476 | 11.75089 | 27891 ft | 425 kts | 233° |
| 2026-05-07 12:27 | 55.26677 | 11.70945 | 28275 ft | 428 kts | 233° |
| 2026-05-07 12:28 | 55.24874 | 11.66762 | 28653 ft | 431 kts | 235° |
| 2026-05-07 12:28 | 55.23170 | 11.62416 | 29025 ft | 434 kts | 237° |
| 2026-05-07 12:28 | 55.21532 | 11.57955 | 29371 ft | 437 kts | 238° |
| 2026-05-07 12:28 | 55.19906 | 11.53432 | 29739 ft | 440 kts | 238° |
| 2026-05-07 12:29 | 55.18268 | 11.48885 | 30086 ft | 443 kts | 238° |
| 2026-05-07 12:29 | 55.16609 | 11.44324 | 30412 ft | 445 kts | 238° |
| 2026-05-07 12:29 | 55.14943 | 11.39790 | 30857 ft | 443 kts | 238° |
| 2026-05-07 12:29 | 55.13272 | 11.35279 | 31348 ft | 440 kts | 238° |
| 2026-05-07 12:30 | 55.11603 | 11.30796 | 31773 ft | 439 kts | 238° |
| 2026-05-07 12:30 | 55.09936 | 11.26331 | 32139 ft | 439 kts | 238° |
| 2026-05-07 12:30 | 55.08263 | 11.21860 | 32503 ft | 439 kts | 237° |
| 2026-05-07 12:30 | 55.06592 | 11.17399 | 32904 ft | 439 kts | 238° |
| 2026-05-07 12:31 | 55.04944 | 11.13009 | 33306 ft | 438 kts | 238° |
| 2026-05-07 12:31 | 55.03277 | 11.08571 | 33680 ft | 437 kts | 237° |
| 2026-05-07 12:31 | 55.01606 | 11.04131 | 34033 ft | 437 kts | 237° |
| 2026-05-07 12:31 | 54.99938 | 10.99707 | 34346 ft | 437 kts | 237° |
| 2026-05-07 12:32 | 54.98273 | 10.95296 | 34676 ft | 435 kts | 237° |
| 2026-05-07 12:32 | 54.96612 | 10.90908 | 35025 ft | 434 kts | 237° |
| 2026-05-07 12:32 | 54.94973 | 10.86503 | 35348 ft | 432 kts | 241° |
| 2026-05-07 12:32 | 54.93843 | 10.81691 | 35581 ft | 431 kts | 255° |
| 2026-05-07 12:33 | 54.92377 | 10.71605 | 36120 ft | 431 kts | 257° |
| 2026-05-07 12:33 | 54.90935 | 10.61438 | 36109 ft | 432 kts | 256° |
| 2026-05-07 12:34 | 54.89440 | 10.51375 | 36097 ft | 429 kts | 256° |
| 2026-05-07 12:34 | 54.87918 | 10.41394 | 36105 ft | 427 kts | 255° |
| 2026-05-07 12:35 | 54.86389 | 10.31462 | 36106 ft | 426 kts | 255° |
| 2026-05-07 12:35 | 54.84853 | 10.21526 | 36111 ft | 426 kts | 255° |
| 2026-05-07 12:36 | 54.83319 | 10.11656 | 36106 ft | 427 kts | 255° |
| 2026-05-07 12:36 | 54.81765 | 10.01704 | 36100 ft | 428 kts | 255° |
| 2026-05-07 12:37 | 54.80179 | 9.91728 | 36101 ft | 430 kts | 255° |
| 2026-05-07 12:37 | 54.78512 | 9.81747 | 36103 ft | 432 kts | 254° |
| 2026-05-07 12:38 | 54.76825 | 9.71750 | 36104 ft | 433 kts | 254° |
| 2026-05-07 12:38 | 54.75130 | 9.61710 | 36096 ft | 435 kts | 255° |
| 2026-05-07 12:39 | 54.73426 | 9.51648 | 36100 ft | 436 kts | 254° |
| 2026-05-07 12:39 | 54.71724 | 9.41648 | 36093 ft | 437 kts | 254° |
| 2026-05-07 12:40 | 54.70003 | 9.31590 | 36086 ft | 436 kts | 254° |
| 2026-05-07 12:40 | 54.68323 | 9.21830 | 36090 ft | 435 kts | 254° |
| 2026-05-07 12:41 | 54.66573 | 9.11715 | 36077 ft | 435 kts | 254° |
| 2026-05-07 12:41 | 54.64833 | 9.01709 | 36072 ft | 434 kts | 254° |
| 2026-05-07 12:42 | 54.62942 | 8.91817 | 36083 ft | 434 kts | 249° |
| 2026-05-07 12:42 | 54.60647 | 8.82258 | 36089 ft | 434 kts | 248° |
| 2026-05-07 12:43 | 54.58278 | 8.72695 | 36090 ft | 434 kts | 248° |
| 2026-05-07 12:43 | 54.55925 | 8.63120 | 36089 ft | 434 kts | 248° |
| 2026-05-07 12:44 | 54.53585 | 8.53535 | 36098 ft | 434 kts | 248° |
| 2026-05-07 12:44 | 54.51243 | 8.43953 | 36096 ft | 435 kts | 248° |
| 2026-05-07 12:45 | 54.48889 | 8.34358 | 36102 ft | 435 kts | 248° |
| 2026-05-07 12:45 | 54.46525 | 8.24763 | 36099 ft | 436 kts | 248° |
| 2026-05-07 12:46 | 54.44150 | 8.15169 | 36102 ft | 437 kts | 247° |
| 2026-05-07 12:46 | 54.41761 | 8.05561 | 36113 ft | 437 kts | 247° |
| 2026-05-07 12:47 | 54.39365 | 7.95969 | 36104 ft | 438 kts | 247° |
| 2026-05-07 12:47 | 54.36956 | 7.86366 | 36111 ft | 438 kts | 247° |
| 2026-05-07 12:48 | 54.34542 | 7.76783 | 36104 ft | 438 kts | 247° |
| 2026-05-07 12:48 | 54.32117 | 7.67197 | 36115 ft | 438 kts | 247° |
| 2026-05-07 12:49 | 54.29684 | 7.57621 | 36112 ft | 438 kts | 247° |
| 2026-05-07 12:49 | 54.27244 | 7.48059 | 36108 ft | 438 kts | 246° |
| 2026-05-07 12:50 | 54.24797 | 7.38511 | 36108 ft | 438 kts | 246° |
| 2026-05-07 12:50 | 54.22361 | 7.29047 | 36108 ft | 438 kts | 246° |
| 2026-05-07 12:51 | 54.19901 | 7.19531 | 36114 ft | 438 kts | 246° |
| 2026-05-07 12:51 | 54.17435 | 7.10030 | 36106 ft | 438 kts | 246° |
| 2026-05-07 12:52 | 54.14960 | 7.00532 | 36105 ft | 438 kts | 246° |
| 2026-05-07 12:52 | 54.12477 | 6.91048 | 36106 ft | 438 kts | 246° |
| 2026-05-07 12:53 | 54.09988 | 6.81578 | 36108 ft | 438 kts | 246° |
| 2026-05-07 12:53 | 54.07490 | 6.72115 | 36102 ft | 438 kts | 246° |
| 2026-05-07 12:54 | 54.04987 | 6.62671 | 36109 ft | 438 kts | 246° |
| 2026-05-07 12:54 | 54.02491 | 6.53294 | 36100 ft | 438 kts | 245° |
| 2026-05-07 12:55 | 53.99969 | 6.43857 | 36103 ft | 438 kts | 245° |
| 2026-05-07 12:55 | 53.97435 | 6.34415 | 36107 ft | 439 kts | 245° |
| 2026-05-07 12:56 | 53.94896 | 6.24995 | 36107 ft | 439 kts | 245° |
| 2026-05-07 12:56 | 53.92351 | 6.15588 | 36104 ft | 439 kts | 245° |
| 2026-05-07 12:57 | 53.89810 | 6.06239 | 36108 ft | 439 kts | 245° |
| 2026-05-07 12:57 | 53.87246 | 5.96838 | 36098 ft | 439 kts | 245° |
| 2026-05-07 12:58 | 53.84670 | 5.87433 | 36102 ft | 440 kts | 245° |
| 2026-05-07 12:58 | 53.82089 | 5.78052 | 36101 ft | 440 kts | 245° |
| 2026-05-07 12:59 | 53.79497 | 5.68666 | 36103 ft | 440 kts | 245° |
| 2026-05-07 12:59 | 53.76900 | 5.59302 | 36107 ft | 440 kts | 244° |
| 2026-05-07 13:00 | 53.74293 | 5.49935 | 36102 ft | 440 kts | 244° |
| 2026-05-07 13:00 | 53.71679 | 5.40585 | 36104 ft | 440 kts | 244° |
| 2026-05-07 13:01 | 53.69073 | 5.31299 | 36110 ft | 440 kts | 244° |
| 2026-05-07 13:01 | 53.66444 | 5.21970 | 36120 ft | 440 kts | 244° |
| 2026-05-07 13:02 | 53.63807 | 5.12651 | 36121 ft | 441 kts | 244° |
| 2026-05-07 13:02 | 53.61158 | 5.03324 | 36120 ft | 441 kts | 244° |
| 2026-05-07 13:03 | 53.58502 | 4.94012 | 36122 ft | 441 kts | 244° |
| 2026-05-07 13:03 | 53.55842 | 4.84722 | 36116 ft | 440 kts | 244° |
| 2026-05-07 13:04 | 53.53178 | 4.75453 | 36125 ft | 440 kts | 244° |
| 2026-05-07 13:04 | 53.50524 | 4.66259 | 36122 ft | 440 kts | 244° |
| 2026-05-07 13:05 | 53.47848 | 4.57021 | 36122 ft | 439 kts | 243° |
| 2026-05-07 13:05 | 53.45169 | 4.47809 | 36121 ft | 439 kts | 243° |
| 2026-05-07 13:06 | 53.42486 | 4.38621 | 36118 ft | 439 kts | 243° |
| 2026-05-07 13:06 | 53.39796 | 4.29442 | 36118 ft | 438 kts | 243° |
| 2026-05-07 13:07 | 53.37101 | 4.20285 | 36119 ft | 438 kts | 243° |
| 2026-05-07 13:07 | 53.34400 | 4.11142 | 36116 ft | 438 kts | 243° |
| 2026-05-07 13:08 | 53.31694 | 4.02016 | 36117 ft | 438 kts | 243° |
| 2026-05-07 13:08 | 53.28983 | 3.92909 | 36112 ft | 438 kts | 243° |
| 2026-05-07 13:09 | 53.26264 | 3.83807 | 36122 ft | 438 kts | 243° |
| 2026-05-07 13:09 | 53.23538 | 3.74720 | 36122 ft | 437 kts | 243° |
| 2026-05-07 13:10 | 53.20825 | 3.65709 | 36120 ft | 437 kts | 243° |
| 2026-05-07 13:10 | 53.18088 | 3.56651 | 36113 ft | 437 kts | 243° |
| 2026-05-07 13:11 | 53.15344 | 3.47600 | 36112 ft | 437 kts | 242° |
| 2026-05-07 13:11 | 53.12594 | 3.38563 | 36105 ft | 437 kts | 242° |
| 2026-05-07 13:12 | 53.10653 | 3.29023 | 36115 ft | 438 kts | 262° |
| 2026-05-07 13:12 | 53.10467 | 3.23974 | 36101 ft | 438 kts | 273° |
| 2026-05-07 13:12 | 53.10755 | 3.18931 | 36117 ft | 438 kts | 276° |
| 2026-05-07 13:13 | 53.11515 | 3.08867 | 36106 ft | 438 kts | 277° |
| 2026-05-07 13:13 | 53.12267 | 2.98856 | 36109 ft | 439 kts | 276° |
| 2026-05-07 13:14 | 53.12977 | 2.88772 | 36112 ft | 439 kts | 276° |
| 2026-05-07 13:14 | 53.13660 | 2.78664 | 36119 ft | 439 kts | 276° |
| 2026-05-07 13:15 | 53.14329 | 2.68551 | 36110 ft | 439 kts | 276° |
| 2026-05-07 13:15 | 53.14990 | 2.58427 | 36113 ft | 440 kts | 276° |
| 2026-05-07 13:16 | 53.15643 | 2.48298 | 36118 ft | 440 kts | 276° |
| 2026-05-07 13:16 | 53.16290 | 2.38143 | 36114 ft | 440 kts | 276° |
| 2026-05-07 13:17 | 53.16820 | 2.29715 | 36112 ft | 440 kts | 275° |
| 2026-05-07 13:17 | 53.17450 | 2.19574 | 36116 ft | 440 kts | 275° |
| 2026-05-07 13:18 | 53.18171 | 2.07787 | 36112 ft | 440 kts | 275° |
| 2026-05-07 13:18 | 53.18782 | 1.97640 | 36106 ft | 440 kts | 275° |
| 2026-05-07 13:19 | 53.19286 | 1.89144 | 36114 ft | 439 kts | 275° |
| 2026-05-07 13:19 | 53.19881 | 1.79006 | 36105 ft | 439 kts | 275° |
| 2026-05-07 13:20 | 53.20462 | 1.68940 | 36110 ft | 439 kts | 275° |
| 2026-05-07 13:20 | 53.21040 | 1.58786 | 36109 ft | 439 kts | 275° |
| 2026-05-07 13:21 | 53.21608 | 1.48656 | 36102 ft | 439 kts | 275° |
| 2026-05-07 13:21 | 53.22167 | 1.38514 | 36100 ft | 439 kts | 275° |
| 2026-05-07 13:22 | 53.22718 | 1.28371 | 36101 ft | 439 kts | 274° |
| 2026-05-07 13:22 | 53.23261 | 1.18218 | 36110 ft | 439 kts | 274° |
| 2026-05-07 13:23 | 53.23795 | 1.08057 | 36100 ft | 439 kts | 274° |
| 2026-05-07 13:23 | 53.24321 | 0.97897 | 36093 ft | 439 kts | 274° |
| 2026-05-07 13:24 | 53.24838 | 0.87729 | 36093 ft | 440 kts | 274° |
| 2026-05-07 13:24 | 53.25344 | 0.77613 | 36088 ft | 440 kts | 274° |
| 2026-05-07 13:25 | 53.25844 | 0.67442 | 36088 ft | 440 kts | 274° |
| 2026-05-07 13:25 | 53.26336 | 0.57257 | 36087 ft | 440 kts | 274° |
| 2026-05-07 13:26 | 53.26819 | 0.47075 | 36079 ft | 440 kts | 274° |
| 2026-05-07 13:26 | 53.27292 | 0.36896 | 36076 ft | 440 kts | 274° |
| 2026-05-07 13:27 | 53.27758 | 0.26712 | 36075 ft | 439 kts | 273° |
| 2026-05-07 13:27 | 53.28215 | 0.16526 | 36071 ft | 439 kts | 273° |
| 2026-05-07 13:28 | 53.28662 | 0.06415 | 36071 ft | 439 kts | 273° |
| 2026-05-07 13:28 | 53.29407 | -0.03716 | 36072 ft | 439 kts | 279° |
| 2026-05-07 13:29 | 53.30514 | -0.13773 | 36071 ft | 439 kts | 279° |
| 2026-05-07 13:29 | 53.31590 | -0.23828 | 36072 ft | 439 kts | 279° |
| 2026-05-07 13:30 | 53.32619 | -0.33917 | 36070 ft | 439 kts | 278° |
| 2026-05-07 13:30 | 53.33633 | -0.43991 | 36072 ft | 439 kts | 278° |
| 2026-05-07 13:31 | 53.34648 | -0.54066 | 36073 ft | 439 kts | 278° |
| 2026-05-07 13:31 | 53.35657 | -0.64151 | 36066 ft | 439 kts | 278° |
| 2026-05-07 13:32 | 53.36640 | -0.74181 | 36065 ft | 439 kts | 278° |
| 2026-05-07 13:32 | 53.37614 | -0.84284 | 36066 ft | 439 kts | 278° |
| 2026-05-07 13:33 | 53.38584 | -0.94393 | 36058 ft | 439 kts | 278° |
| 2026-05-07 13:33 | 53.39586 | -1.04497 | 36054 ft | 439 kts | 278° |
| 2026-05-07 13:34 | 53.41037 | -1.19655 | 36047 ft | 439 kts | 278° |
| 2026-05-07 13:35 | 53.41969 | -1.29777 | 36050 ft | 439 kts | 277° |
| 2026-05-07 13:35 | 53.42906 | -1.39820 | 36049 ft | 439 kts | 277° |
| 2026-05-07 13:36 | 53.43853 | -1.49929 | 36045 ft | 439 kts | 277° |
| 2026-05-07 13:36 | 53.44783 | -1.60054 | 36041 ft | 439 kts | 277° |
| 2026-05-07 13:37 | 53.45702 | -1.70194 | 36042 ft | 439 kts | 277° |
| 2026-05-07 13:37 | 53.46614 | -1.80330 | 36043 ft | 439 kts | 277° |
| 2026-05-07 13:38 | 53.47505 | -1.90458 | 36040 ft | 439 kts | 277° |
| 2026-05-07 13:38 | 53.48380 | -2.00597 | 36045 ft | 439 kts | 276° |
| 2026-05-07 13:39 | 53.49251 | -2.10737 | 36046 ft | 439 kts | 276° |
| 2026-05-07 13:39 | 53.50107 | -2.20798 | 36043 ft | 439 kts | 276° |
| 2026-05-07 13:40 | 53.50967 | -2.30957 | 36045 ft | 439 kts | 276° |
| 2026-05-07 13:40 | 53.51817 | -2.41091 | 36040 ft | 439 kts | 276° |
| 2026-05-07 13:41 | 53.52661 | -2.51243 | 36042 ft | 439 kts | 276° |
| 2026-05-07 13:41 | 53.53495 | -2.61401 | 36042 ft | 438 kts | 276° |
| 2026-05-07 13:42 | 53.54321 | -2.71557 | 36022 ft | 438 kts | 276° |
| 2026-05-07 13:42 | 53.55136 | -2.81697 | 36027 ft | 437 kts | 276° |
| 2026-05-07 13:43 | 53.55942 | -2.91836 | 36028 ft | 437 kts | 276° |
| 2026-05-07 13:43 | 53.56739 | -3.01960 | 36021 ft | 436 kts | 275° |
| 2026-05-07 13:44 | 53.57526 | -3.12083 | 36024 ft | 436 kts | 275° |
| 2026-05-07 13:44 | 53.58304 | -3.22205 | 35897 ft | 438 kts | 275° |
| 2026-05-07 13:44 | 53.58692 | -3.27298 | 35478 ft | 438 kts | 275° |
| 2026-05-07 13:45 | 53.59076 | -3.32351 | 35060 ft | 434 kts | 275° |
| 2026-05-07 13:45 | 53.59450 | -3.37306 | 34655 ft | 431 kts | 275° |
| 2026-05-07 13:45 | 53.59824 | -3.42292 | 34244 ft | 428 kts | 274° |
| 2026-05-07 13:45 | 53.60194 | -3.47258 | 33795 ft | 426 kts | 274° |
| 2026-05-07 13:46 | 53.60559 | -3.52186 | 33334 ft | 423 kts | 274° |
| 2026-05-07 13:46 | 53.60921 | -3.57084 | 32912 ft | 419 kts | 274° |
| 2026-05-07 13:46 | 53.61277 | -3.61933 | 32498 ft | 416 kts | 274° |
| 2026-05-07 13:46 | 53.61755 | -3.66735 | 32088 ft | 415 kts | 281° |
| 2026-05-07 13:47 | 53.62667 | -3.71348 | 31608 ft | 416 kts | 289° |
| 2026-05-07 13:47 | 53.63770 | -3.75845 | 31208 ft | 414 kts | 290° |
| 2026-05-07 13:47 | 53.64884 | -3.80291 | 30805 ft | 411 kts | 290° |
| 2026-05-07 13:47 | 53.65978 | -3.84731 | 30425 ft | 408 kts | 290° |
| 2026-05-07 13:48 | 53.67041 | -3.89146 | 30028 ft | 405 kts | 289° |
| 2026-05-07 13:48 | 53.68083 | -3.93532 | 29592 ft | 402 kts | 289° |
| 2026-05-07 13:48 | 53.69121 | -3.97881 | 29290 ft | 395 kts | 289° |
| 2026-05-07 13:48 | 53.70141 | -4.02084 | 28926 ft | 390 kts | 289° |
| 2026-05-07 13:49 | 53.71145 | -4.06312 | 28543 ft | 385 kts | 285° |
| 2026-05-07 13:49 | 53.71802 | -4.10646 | 28198 ft | 377 kts | 275° |
| 2026-05-07 13:49 | 53.72029 | -4.14995 | 27868 ft | 369 kts | 270° |
| 2026-05-07 13:49 | 53.72165 | -4.19305 | 27479 ft | 366 kts | 269° |
| 2026-05-07 13:50 | 53.72291 | -4.23589 | 27109 ft | 363 kts | 269° |
| 2026-05-07 13:50 | 53.72424 | -4.27835 | 26731 ft | 361 kts | 270° |
| 2026-05-07 13:50 | 53.72566 | -4.32050 | 26367 ft | 358 kts | 270° |
| 2026-05-07 13:50 | 53.72714 | -4.36238 | 26003 ft | 356 kts | 270° |
| 2026-05-07 13:51 | 53.72861 | -4.40402 | 25638 ft | 354 kts | 270° |
| 2026-05-07 13:51 | 53.73006 | -4.44537 | 25282 ft | 351 kts | 270° |
| 2026-05-07 13:51 | 53.73146 | -4.48564 | 25043 ft | 345 kts | 270° |
| 2026-05-07 13:51 | 53.73288 | -4.52656 | 24691 ft | 343 kts | 270° |
| 2026-05-07 13:52 | 53.73423 | -4.56621 | 24357 ft | 341 kts | 270° |
| 2026-05-07 13:52 | 53.73558 | -4.60611 | 24013 ft | 340 kts | 270° |
| 2026-05-07 13:52 | 53.73692 | -4.64583 | 23668 ft | 338 kts | 270° |
| 2026-05-07 13:52 | 53.73823 | -4.68545 | 23268 ft | 337 kts | 270° |
| 2026-05-07 13:53 | 53.73954 | -4.72483 | 22879 ft | 335 kts | 270° |
| 2026-05-07 13:53 | 53.74082 | -4.76389 | 22530 ft | 331 kts | 270° |
| 2026-05-07 13:53 | 53.74207 | -4.80264 | 22172 ft | 329 kts | 270° |
| 2026-05-07 13:53 | 53.74331 | -4.84104 | 21841 ft | 326 kts | 270° |
| 2026-05-07 13:54 | 53.74456 | -4.87904 | 21552 ft | 322 kts | 270° |
| 2026-05-07 13:54 | 53.74582 | -4.91669 | 21203 ft | 320 kts | 270° |
| 2026-05-07 13:54 | 53.74703 | -4.95352 | 20870 ft | 317 kts | 270° |
| 2026-05-07 13:54 | 53.74825 | -4.99062 | 20541 ft | 315 kts | 270° |
| 2026-05-07 13:55 | 53.74945 | -5.02750 | 20206 ft | 313 kts | 270° |
| 2026-05-07 13:55 | 53.75062 | -5.06424 | 19876 ft | 312 kts | 270° |
| 2026-05-07 13:55 | 53.75178 | -5.10066 | 19549 ft | 310 kts | 270° |
| 2026-05-07 13:55 | 53.75165 | -5.13683 | 19217 ft | 306 kts | 261° |
| 2026-05-07 13:56 | 53.74722 | -5.17155 | 18926 ft | 300 kts | 250° |
| 2026-05-07 13:56 | 53.74059 | -5.20482 | 18616 ft | 298 kts | 249° |
| 2026-05-07 13:56 | 53.73373 | -5.23777 | 18295 ft | 297 kts | 249° |
| 2026-05-07 13:56 | 53.72689 | -5.27064 | 17929 ft | 296 kts | 249° |
| 2026-05-07 13:57 | 53.72015 | -5.30329 | 17584 ft | 294 kts | 249° |
| 2026-05-07 13:57 | 53.71349 | -5.33579 | 17255 ft | 291 kts | 249° |
| 2026-05-07 13:57 | 53.70699 | -5.36761 | 16938 ft | 289 kts | 249° |
| 2026-05-07 13:57 | 53.70049 | -5.39959 | 16616 ft | 287 kts | 249° |
| 2026-05-07 13:58 | 53.69401 | -5.43138 | 16298 ft | 286 kts | 249° |
| 2026-05-07 13:58 | 53.68755 | -5.46302 | 15968 ft | 284 kts | 249° |
| 2026-05-07 13:58 | 53.68114 | -5.49440 | 15668 ft | 282 kts | 249° |
| 2026-05-07 13:58 | 53.67584 | -5.52629 | 15353 ft | 282 kts | 255° |
| 2026-05-07 13:59 | 53.67171 | -5.55851 | 15050 ft | 281 kts | 256° |
| 2026-05-07 13:59 | 53.66778 | -5.59066 | 14731 ft | 280 kts | 256° |
| 2026-05-07 13:59 | 53.66379 | -5.62269 | 14429 ft | 279 kts | 255° |
| 2026-05-07 13:59 | 53.65973 | -5.65460 | 14109 ft | 278 kts | 255° |
| 2026-05-07 14:00 | 53.65560 | -5.68640 | 13794 ft | 277 kts | 255° |
| 2026-05-07 14:00 | 53.65144 | -5.71809 | 13460 ft | 276 kts | 255° |
| 2026-05-07 14:00 | 53.64727 | -5.74963 | 13135 ft | 275 kts | 255° |
| 2026-05-07 14:00 | 53.64312 | -5.78100 | 12817 ft | 273 kts | 255° |
| 2026-05-07 14:01 | 53.63899 | -5.81211 | 12525 ft | 271 kts | 255° |
| 2026-05-07 14:01 | 53.63487 | -5.84303 | 12208 ft | 270 kts | 255° |
| 2026-05-07 14:01 | 53.63078 | -5.87376 | 11907 ft | 268 kts | 255° |
| 2026-05-07 14:01 | 53.62670 | -5.90428 | 11611 ft | 266 kts | 255° |
| 2026-05-07 14:02 | 53.62263 | -5.93472 | 11312 ft | 265 kts | 255° |
| 2026-05-07 14:02 | 53.61864 | -5.96452 | 11013 ft | 264 kts | 255° |
| 2026-05-07 14:02 | 53.61460 | -5.99460 | 10718 ft | 263 kts | 255° |
| 2026-05-07 14:02 | 53.61057 | -6.02456 | 10426 ft | 262 kts | 255° |
| 2026-05-07 14:03 | 53.60655 | -6.05445 | 10143 ft | 260 kts | 255° |
| 2026-05-07 14:03 | 53.60261 | -6.08368 | 10042 ft | 252 kts | 255° |
| 2026-05-07 14:03 | 53.59876 | -6.11210 | 9840 ft | 248 kts | 255° |
| 2026-05-07 14:03 | 53.59493 | -6.14031 | 9544 ft | 247 kts | 255° |
| 2026-05-07 14:04 | 53.59110 | -6.16846 | 9267 ft | 245 kts | 255° |
| 2026-05-07 14:04 | 53.58730 | -6.19641 | 8998 ft | 244 kts | 255° |
| 2026-05-07 14:04 | 53.58350 | -6.22431 | 8726 ft | 246 kts | 255° |
| 2026-05-07 14:04 | 53.58027 | -6.25245 | 8517 ft | 244 kts | 259° |
| 2026-05-07 14:05 | 53.57774 | -6.28058 | 8274 ft | 241 kts | 259° |
| 2026-05-07 14:05 | 53.57530 | -6.30856 | 8004 ft | 243 kts | 259° |
| 2026-05-07 14:05 | 53.57277 | -6.33713 | 7758 ft | 250 kts | 259° |
| 2026-05-07 14:05 | 53.57017 | -6.36608 | 7482 ft | 257 kts | 259° |
| 2026-05-07 14:06 | 53.56747 | -6.39566 | 7206 ft | 256 kts | 259° |
| 2026-05-07 14:06 | 53.56476 | -6.42523 | 6912 ft | 255 kts | 258° |
| 2026-05-07 14:06 | 53.56204 | -6.45473 | 6633 ft | 254 kts | 258° |
| 2026-05-07 14:06 | 53.55931 | -6.48404 | 6361 ft | 254 kts | 258° |
| 2026-05-07 14:07 | 53.55659 | -6.51324 | 6103 ft | 251 kts | 258° |
| 2026-05-07 14:07 | 53.55387 | -6.54215 | 5817 ft | 250 kts | 258° |
| 2026-05-07 14:07 | 53.55115 | -6.57092 | 5560 ft | 247 kts | 258° |
| 2026-05-07 14:07 | 53.54850 | -6.59891 | 5467 ft | 238 kts | 258° |
| 2026-05-07 14:08 | 53.54593 | -6.62603 | 5360 ft | 231 kts | 257° |
| 2026-05-07 14:08 | 53.54037 | -6.65046 | 5158 ft | 223 kts | 230° |
| 2026-05-07 14:08 | 53.52847 | -6.66590 | 4995 ft | 214 kts | 202° |
| 2026-05-07 14:08 | 53.51412 | -6.66956 | 4763 ft | 210 kts | 175° |
| 2026-05-07 14:09 | 53.50046 | -6.66137 | 4552 ft | 212 kts | 150° |
| 2026-05-07 14:09 | 53.49004 | -6.64362 | 4320 ft | 218 kts | 127° |
| 2026-05-07 14:09 | 53.48253 | -6.62137 | 4074 ft | 221 kts | 121° |
| 2026-05-07 14:09 | 53.47543 | -6.59840 | 3824 ft | 222 kts | 121° |
| 2026-05-07 14:10 | 53.46833 | -6.57554 | 3569 ft | 217 kts | 121° |
| 2026-05-07 14:10 | 53.46145 | -6.55356 | 3373 ft | 207 kts | 121° |
| 2026-05-07 14:10 | 53.45481 | -6.53252 | 3231 ft | 203 kts | 121° |
| 2026-05-07 14:10 | 53.45038 | -6.51013 | 2994 ft | 206 kts | 102° |
| 2026-05-07 14:11 | 53.44936 | -6.49427 | 2802 ft | 204 kts | 100° |
| 2026-05-07 14:11 | 53.44790 | -6.47108 | 2545 ft | 197 kts | 101° |
| 2026-05-07 14:11 | 53.44658 | -6.44854 | 2269 ft | 189 kts | 99° |
| 2026-05-07 14:11 | 53.44539 | -6.42734 | 2023 ft | 176 kts | 100° |
| 2026-05-07 14:12 | 53.44427 | -6.40765 | 1817 ft | 161 kts | 101° |
| 2026-05-07 14:12 | 53.44295 | -6.38437 | 1546 ft | 149 kts | 100° |
| 2026-05-07 14:12 | 53.44198 | -6.36724 | 1321 ft | 143 kts | 102° |
| 2026-05-07 14:12 | 53.44106 | -6.35079 | 1099 ft | 140 kts | 100° |
| 2026-05-07 14:13 | 53.44046 | -6.33980 | 985 ft | 140 kts | 100° |
| 2026-05-07 14:13 | 53.43955 | -6.32388 | 762 ft | 135 kts | 97° |
| 2026-05-07 14:13 | 53.43872 | -6.30854 | 595 ft | 133 kts | 100° |
| 2026-05-07 14:13 | 53.43780 | -6.29295 | 401 ft | 133 kts | 98° |
| 2026-05-07 14:14 | 53.43701 | -6.27744 | 217 ft | 132 kts | 98° |
| 2026-05-07 14:14 | 53.43624 | -6.26390 | 212 ft | 98 kts | 95° |
| 2026-05-07 14:14 | 53.43578 | -6.25538 | 216 ft | 49 kts | 97° |
| 2026-05-07 14:14 | 53.43510 | -6.25174 | 217 ft | 26 kts | 118° |
| 2026-05-07 14:15 | 53.43441 | -6.25000 | 215 ft | 5 kts | 145° |
| 2026-05-07 14:15 | 53.43418 | -6.24992 | 212 ft | 0 kts | 183° |
| 2026-05-07 14:16 | 53.43413 | -6.24993 | 210 ft | 2 kts | 184° |
| 2026-05-07 14:16 | 53.43379 | -6.24967 | 221 ft | 9 kts | 118° |
| 2026-05-07 14:16 | 53.43367 | -6.24836 | 213 ft | 14 kts | 94° |
| 2026-05-07 14:16 | 53.43358 | -6.24658 | 219 ft | 17 kts | 96° |
| 2026-05-07 14:17 | 53.43345 | -6.24463 | 210 ft | 14 kts | 103° |
| 2026-05-07 14:17 | 53.43263 | -6.24408 | 213 ft | 15 kts | 184° |
| 2026-05-07 14:17 | 53.43194 | -6.24459 | 210 ft | 11 kts | 244° |
| 2026-05-07 14:17 | 53.43191 | -6.24523 | 210 ft | 5 kts | 273° |
| 2026-05-07 14:18 | 53.43164 | -6.24556 | 210 ft | 7 kts | 191° |
| 2026-05-07 14:18 | 53.43112 | -6.24565 | 210 ft | 8 kts | 185° |
| 2026-05-07 14:18 | 53.43086 | -6.24568 | 218 ft | 1 kts | 185° |
| 2026-05-07 14:18 | 53.43085 | -6.24568 | 217 ft | 0 kts | 185° |